Chilton, WI (53014)

4:53 AM CST on December 10, 2016 (GMT -0600)
Near Golf Course | | Change Station
Active Advisory: Winter Storm Watch

Elev 912 ft 44.05 °N, 88.18 °W | Updated 53 seconds ago

Overcast
Overcast
15.8 °F
Feels Like 8 °F
N
5.0
Wind Variable Wind from NW

Today
High -- | Low -- °F
--% Chance of Precip.
Yesterday
High -- | Low -- °F
Precip. -- in
Pressure 30.51 in
Visibility 10.0 miles
Clouds Few 6500 ft
Windchill 8 °F
Dew Point 11 °F
Humidity 83%
Rainfall 0.00 in
Snow Depth Not available.
7:16 AM 4:14 PM
Waxing Gibbous, 82% visible
METAR KOSH 100953Z AUTO 25004KT 10SM FEW065 M09/M13 A3044 RMK AO2 SLP331 T10941133
Pressure 30.51 in
Visibility 10.0 miles
Clouds Few 6500 ft
Windchill 8 °F
Dew Point 11 °F
Humidity 83%
Rainfall 0.00 in
Snow Depth Not available.
7:16 AM 4:14 PM
Waxing Gibbous, 82% visible
METAR KOSH 100953Z AUTO 25004KT 10SM FEW065 M09/M13 A3044 RMK AO2 SLP331 T10941133

10-Day Weather Forecast

Almanac

Astronomy

Dec. 10, 2016 Rise Set
Actual Time
Civil Twilight
Nautical Twilight
Astronomical Twilight
Moon
Length of Visible Light
Length of Day
Tomorrow will be .
, % of the Moon is Illuminated

Today's Extremes

State Highs State Lows

Community

WunderPhotos

Upload Photos

1,956,536 photos uploaded!

WunderBlog® & News

Nearby

Air Quality

  Air Quality AQ Index Pollutant
Not available.

Snow Depth

Station Depth Elevation

Earthquake Activity

City Distance Mag. Time & Date
Minimum magnitude displayed is 2.5.

Coastal Water Temperatures

Place Temperature

Stations

Nearby Weather Stations

Station Location Temp. Windchill Dew Point Humidity Wind Precip. Elev Updated Type
                   

Watches & Warnings

Winter Storm Watch
Issued: 3:56 AM CST Dec. 10, 2016 – National Weather Service

... Winter Storm Watch remains in effect from this evening through
Sunday evening...

* timing... late this evening through Sunday evening. The heaviest
snow should fall Sunday.

* Snow accumulations... around 6 inches... and possibly an
additional inch or two at some locations near the lake.

* Main impact... hazardous travel will develop tonight and
continue through Sunday evening.

Precautionary/preparedness actions...

A Winter Storm Watch means there is a potential for significant
snow accumulations that may impact travel. Continue to monitor
the latest forecasts.